createdAt,value
2019-05-14T00:01:53.390Z,7.32
2019-05-14T00:04:24.848Z,7.35
2019-05-14T00:06:55.545Z,7.40
2019-05-14T00:09:26.072Z,7.47
2019-05-14T00:11:56.442Z,7.46
2019-05-14T00:14:37.229Z,7.46
2019-05-14T00:16:58.611Z,7.38
2019-05-14T00:19:29.079Z,7.40
2019-05-14T00:22:02.076Z,7.33
2019-05-14T00:24:32.861Z,7.29
2019-05-14T00:27:03.365Z,7.12
2019-05-14T00:29:34.020Z,7.05
2019-05-14T00:32:04.249Z,7.01
2019-05-14T00:34:34.493Z,6.98
2019-05-14T00:37:04.695Z,7.02
2019-05-14T00:39:35.066Z,7.02
2019-05-14T00:42:06.391Z,7.00
2019-05-14T00:44:36.662Z,7.07
2019-05-14T00:47:07.214Z,7.15
2019-05-14T00:49:37.497Z,7.03
2019-05-14T00:52:08.161Z,6.91
2019-05-14T00:54:41.612Z,6.91
2019-05-14T00:57:12.189Z,6.82
2019-05-14T00:59:42.926Z,6.82
2019-05-14T01:02:13.859Z,6.79
2019-05-14T01:04:44.468Z,6.75
2019-05-14T01:07:14.750Z,6.76
2019-05-14T01:09:44.928Z,6.81
2019-05-14T01:12:15.596Z,6.80
2019-05-14T01:14:46.137Z,6.83
2019-05-14T01:17:16.357Z,6.82
2019-05-14T01:19:46.643Z,6.79
2019-05-14T01:22:17.287Z,6.71
2019-05-14T01:24:49.485Z,6.61
2019-05-14T01:27:21.120Z,6.54
2019-05-14T01:29:51.610Z,6.52
2019-05-14T01:32:22.172Z,6.57
2019-05-14T01:34:52.892Z,6.61
2019-05-14T01:37:23.508Z,6.68
2019-05-14T01:39:55.756Z,6.65
2019-05-14T01:42:26.113Z,6.80
2019-05-14T01:44:56.508Z,6.93
2019-05-14T01:47:26.768Z,6.93
2019-05-14T01:49:57.423Z,6.98
2019-05-14T01:52:28.458Z,6.96
2019-05-14T01:54:58.782Z,6.86
2019-05-14T01:57:31.090Z,6.60
2019-05-14T02:00:02.299Z,6.38
2019-05-14T02:02:33.964Z,6.33
2019-05-14T02:05:05.761Z,6.26
2019-05-14T02:07:35.943Z,6.07
2019-05-14T02:10:06.578Z,6.04
2019-05-14T02:12:37.224Z,5.91
2019-05-14T02:15:07.866Z,5.98
2019-05-14T02:17:41.454Z,6.05
2019-05-14T02:20:12.580Z,6.04
2019-05-14T02:22:43.170Z,5.98
2019-05-14T02:25:13.446Z,6.01
2019-05-14T02:27:43.617Z,6.05
2019-05-14T02:30:14.187Z,6.09
2019-05-14T02:32:44.833Z,6.20
2019-05-14T02:35:15.068Z,6.26
2019-05-14T02:37:45.736Z,6.20
2019-05-14T02:40:15.963Z,6.05
2019-05-14T02:42:46.319Z,5.90
2019-05-14T02:45:19.846Z,5.70
2019-05-14T02:47:50.380Z,5.69
2019-05-14T02:50:22.331Z,5.74
2019-05-14T02:52:52.600Z,5.80
2019-05-14T02:55:22.853Z,5.72
2019-05-14T02:57:53.178Z,5.70
2019-05-14T03:00:23.622Z,5.65
2019-05-14T03:02:54.012Z,5.64
2019-05-14T03:05:24.521Z,5.60
2019-05-14T03:07:54.731Z,5.61
2019-05-14T03:10:24.994Z,5.62
2019-05-14T03:12:55.369Z,5.60
2019-05-14T03:15:29.129Z,5.59
2019-05-14T03:17:59.987Z,5.63
2019-05-14T03:20:39.011Z,5.67
2019-05-14T03:23:13.755Z,5.68
2019-05-14T03:25:40.914Z,5.62
2019-05-14T03:28:11.586Z,5.68
2019-05-14T03:30:43.121Z,5.69
2019-05-14T03:33:14.141Z,5.71
2019-05-14T03:35:51.833Z,5.74
2019-05-14T03:38:19.806Z,5.78
2019-05-14T03:40:50.261Z,5.80
2019-05-14T03:43:21.021Z,5.85
2019-05-14T03:45:51.415Z,5.84
2019-05-14T03:48:21.788Z,5.91
2019-05-14T03:50:51.967Z,6.01
2019-05-14T03:53:22.326Z,5.85
2019-05-14T03:55:53.328Z,5.77
2019-05-14T03:58:23.565Z,5.72
2019-05-14T04:01:00.864Z,5.73
2019-05-14T04:03:32.451Z,5.72
2019-05-14T04:06:02.919Z,5.84
2019-05-14T04:08:33.908Z,5.84
2019-05-14T04:11:04.517Z,5.99
2019-05-14T04:13:35.272Z,6.07
2019-05-14T04:16:09.170Z,6.00
2019-05-14T04:18:40.231Z,5.99
2019-05-14T04:21:13.310Z,6.00
2019-05-14T04:23:50.885Z,6.05
2019-05-14T04:26:22.644Z,6.06
2019-05-14T04:28:53.391Z,6.07
2019-05-14T04:31:23.687Z,6.05
2019-05-14T04:33:58.981Z,6.06
2019-05-14T04:36:29.952Z,6.11
2019-05-14T04:39:00.997Z,6.15
2019-05-14T04:41:31.479Z,6.24
2019-05-14T04:44:01.925Z,6.27
2019-05-14T04:46:32.246Z,6.36
2019-05-14T04:49:02.601Z,6.43
2019-05-14T04:51:33.280Z,6.45
2019-05-14T04:54:03.583Z,6.56
2019-05-14T04:56:34.163Z,6.65
2019-05-14T04:59:05.644Z,6.67
2019-05-14T05:01:35.990Z,6.71
2019-05-14T05:04:09.345Z,6.84
2019-05-14T05:06:39.928Z,6.95
2019-05-14T05:09:11.142Z,7.12
2019-05-14T05:11:41.839Z,7.21
2019-05-14T05:14:12.024Z,7.29
2019-05-14T05:16:43.315Z,7.41
2019-05-14T05:19:13.807Z,7.45
2019-05-14T05:21:44.022Z,7.56
2019-05-14T05:24:15.098Z,7.68
2019-05-14T05:26:48.582Z,7.78
2019-05-14T05:29:18.756Z,7.78
2019-05-14T05:31:49.430Z,7.99
2019-05-14T05:34:19.679Z,8.16
2019-05-14T05:36:49.911Z,8.31
2019-05-14T05:39:20.364Z,8.46
2019-05-14T05:41:52.423Z,8.60
2019-05-14T05:44:24.756Z,8.64
2019-05-14T05:46:55.851Z,8.67
2019-05-14T05:49:26.229Z,8.76
2019-05-14T05:51:58.893Z,8.85
2019-05-14T05:54:29.336Z,9.04
2019-05-14T05:56:59.824Z,9.15
2019-05-14T05:59:30.092Z,9.31
2019-05-14T06:02:00.859Z,9.43
2019-05-14T06:04:31.468Z,9.64
2019-05-14T06:07:02.732Z,9.81
2019-05-14T06:09:33.297Z,9.78
2019-05-14T06:12:03.675Z,10.05
2019-05-14T06:14:33.970Z,10.32
2019-05-14T06:17:04.749Z,10.54
2019-05-14T06:19:35.054Z,10.47
2019-05-14T06:22:05.464Z,10.41
2019-05-14T06:24:35.913Z,10.44
2019-05-14T06:27:09.187Z,10.49
2019-05-14T06:29:38.611Z,10.77
2019-05-14T06:32:09.484Z,10.93
2019-05-14T06:34:41.291Z,10.95
2019-05-14T06:37:14.520Z,11.00
2019-05-14T06:39:48.314Z,10.92
2019-05-14T06:42:19.347Z,10.90
2019-05-14T06:44:49.717Z,11.05
2019-05-14T06:47:20.476Z,10.94
2019-05-14T06:49:50.730Z,10.55
2019-05-14T06:52:21.183Z,10.57
2019-05-14T06:54:51.674Z,10.20
2019-05-14T06:57:21.924Z,10.55
2019-05-14T06:59:52.611Z,10.61
2019-05-14T07:02:22.825Z,10.56
2019-05-14T07:04:53.468Z,10.72
2019-05-14T07:07:23.714Z,11.04
2019-05-14T07:09:59.696Z,11.21
2019-05-14T07:12:30.837Z,11.29
2019-05-14T07:15:01.206Z,11.47
2019-05-14T07:17:31.584Z,11.55
2019-05-14T07:20:03.182Z,11.41
2019-05-14T07:22:33.531Z,11.44
2019-05-14T07:25:04.166Z,11.62
2019-05-14T07:27:34.376Z,11.85
2019-05-14T07:30:05.587Z,11.95
2019-05-14T07:32:36.012Z,12.07
2019-05-14T07:35:09.101Z,12.18
2019-05-14T07:37:40.026Z,12.29
2019-05-14T07:40:10.818Z,11.83
2019-05-14T07:42:41.274Z,11.66
2019-05-14T07:45:12.113Z,11.78
2019-05-14T07:47:43.113Z,11.56
2019-05-14T07:50:13.964Z,11.49
2019-05-14T07:52:45.964Z,11.80
2019-05-14T07:55:18.551Z,11.90
2019-05-14T07:57:48.992Z,11.95
2019-05-14T08:00:21.617Z,12.05
2019-05-14T08:02:52.917Z,12.19
2019-05-14T08:05:23.386Z,12.24
2019-05-14T08:07:53.889Z,12.30
2019-05-14T08:10:24.616Z,12.11
2019-05-14T08:12:54.969Z,11.94
2019-05-14T08:15:25.176Z,11.63
2019-05-14T08:17:55.478Z,11.52
2019-05-14T08:20:25.972Z,11.62
2019-05-14T08:22:58.249Z,11.62
2019-05-14T08:25:28.742Z,11.75
2019-05-14T08:27:59.120Z,11.72
2019-05-14T08:30:30.193Z,11.68
2019-05-14T08:33:00.527Z,12.02
2019-05-14T08:35:34.063Z,12.27
2019-05-14T08:38:07.664Z,12.50
2019-05-14T08:40:35.361Z,12.91
2019-05-14T08:43:05.646Z,13.17
2019-05-14T08:45:36.146Z,12.94
2019-05-14T08:48:09.016Z,13.12
2019-05-14T08:50:38.898Z,13.63
2019-05-14T08:53:09.308Z,13.63
2019-05-14T08:55:39.769Z,14.07
2019-05-14T08:58:13.762Z,14.36
2019-05-14T09:00:42.260Z,14.50
2019-05-14T09:03:12.637Z,13.87
2019-05-14T09:05:43.115Z,13.58
2019-05-14T09:08:14.358Z,13.21
2019-05-14T09:10:45.305Z,13.10
2019-05-14T09:13:18.204Z,13.17
2019-05-14T09:15:48.941Z,12.85
2019-05-14T09:18:19.680Z,12.78
2019-05-14T09:20:50.424Z,12.68
2019-05-14T09:23:21.421Z,12.69
2019-05-14T09:25:53.324Z,12.92
2019-05-14T09:28:23.960Z,13.47
2019-05-14T09:30:54.292Z,13.28
2019-05-14T09:33:24.734Z,13.95
2019-05-14T09:36:09.637Z,13.95
2019-05-14T09:38:29.328Z,14.25
2019-05-14T09:41:10.642Z,13.86
2019-05-14T09:43:33.482Z,14.40
2019-05-14T09:46:03.885Z,14.40
2019-05-14T09:48:34.329Z,14.01
2019-05-14T09:51:04.666Z,14.82
2019-05-14T09:53:34.850Z,15.26
2019-05-14T09:56:06.173Z,15.06
2019-05-14T09:58:38.728Z,15.66
2019-05-14T10:01:09.137Z,15.89
2019-05-14T10:03:39.536Z,16.48
2019-05-14T10:06:10.156Z,16.86
2019-05-14T10:08:40.654Z,16.01
2019-05-14T10:11:10.940Z,16.19
2019-05-14T10:13:41.211Z,17.15
2019-05-14T10:16:12.082Z,16.10
2019-05-14T10:18:42.773Z,15.24
2019-05-14T10:21:13.077Z,15.37
2019-05-14T10:23:43.358Z,15.51
2019-05-14T10:26:13.717Z,15.54
2019-05-14T10:28:44.050Z,15.91
2019-05-14T10:31:14.559Z,16.09
2019-05-14T10:33:48.333Z,15.74
2019-05-14T10:36:21.977Z,16.58
2019-05-14T10:38:52.689Z,18.13
2019-05-14T10:41:23.522Z,18.56
2019-05-14T10:43:53.950Z,19.03
2019-05-14T10:46:24.646Z,18.56
2019-05-14T10:48:55.001Z,16.90
2019-05-14T10:51:25.334Z,17.17
2019-05-14T10:53:55.669Z,18.07
2019-05-14T10:56:26.040Z,18.23
2019-05-14T10:58:58.424Z,18.80
2019-05-14T11:01:28.617Z,18.83
2019-05-14T11:03:58.954Z,19.18
2019-05-14T11:06:29.850Z,18.61
2019-05-14T11:09:00.909Z,18.33
2019-05-14T11:11:31.885Z,17.80
2019-05-14T11:14:02.824Z,17.82
2019-05-14T11:16:34.414Z,17.44
2019-05-14T11:19:04.934Z,16.82
2019-05-14T11:21:35.128Z,16.35
2019-05-14T11:24:09.205Z,16.79
2019-05-14T11:26:39.310Z,16.61
2019-05-14T11:29:09.598Z,16.52
2019-05-14T11:31:39.838Z,16.18
2019-05-14T11:34:10.098Z,17.30
2019-05-14T11:36:40.735Z,18.14
2019-05-14T11:39:12.114Z,19.13
2019-05-14T11:41:42.722Z,19.51
2019-05-14T11:44:13.416Z,19.60
2019-05-14T11:46:52.236Z,20.04
2019-05-14T11:49:19.169Z,20.34
2019-05-14T11:52:00.626Z,17.62
2019-05-14T11:54:23.153Z,18.19
2019-05-14T11:56:53.033Z,18.65
2019-05-14T11:59:23.641Z,18.35
2019-05-14T12:01:55.070Z,17.45
2019-05-14T12:04:25.455Z,16.26
2019-05-14T12:06:58.871Z,16.88
2019-05-14T12:09:29.273Z,17.32
2019-05-14T12:11:59.568Z,17.71
2019-05-14T12:14:29.979Z,18.04
2019-05-14T12:17:01.637Z,17.97
2019-05-14T12:19:31.837Z,17.72
2019-05-14T12:22:07.117Z,17.60
2019-05-14T12:24:34.556Z,17.73
2019-05-14T12:27:08.558Z,18.65
2019-05-14T12:29:39.848Z,19.02
2019-05-14T12:32:12.915Z,19.32
2019-05-14T12:34:41.825Z,19.20
2019-05-14T12:37:12.114Z,18.69
2019-05-14T12:39:42.468Z,18.85
2019-05-14T12:42:12.678Z,18.59
2019-05-14T12:44:43.125Z,18.50
2019-05-14T12:47:18.835Z,18.66
2019-05-14T12:49:49.009Z,18.18
2019-05-14T12:52:25.730Z,17.87
2019-05-14T12:54:55.177Z,17.24
2019-05-14T12:57:29.832Z,17.58
2019-05-14T12:59:59.303Z,17.29
2019-05-14T13:02:30.249Z,17.37
2019-05-14T13:05:01.219Z,16.96
2019-05-14T13:07:31.800Z,17.40
2019-05-14T13:10:02.218Z,17.40
2019-05-14T13:12:32.880Z,17.59
2019-05-14T13:15:03.667Z,17.88
2019-05-14T13:17:34.060Z,17.95
2019-05-14T13:20:05.683Z,17.95
2019-05-14T13:22:44.930Z,17.49
2019-05-14T13:25:11.003Z,17.49
2019-05-14T13:27:41.732Z,17.77
2019-05-14T13:30:12.944Z,17.79
2019-05-14T13:32:44.038Z,17.09
2019-05-14T13:35:14.473Z,16.01
2019-05-14T13:37:44.717Z,15.48
2019-05-14T13:40:20.869Z,15.21
2019-05-14T13:42:49.380Z,15.08
2019-05-14T13:45:21.390Z,14.73
2019-05-14T13:47:54.949Z,14.98
2019-05-14T13:50:31.442Z,15.01
2019-05-14T13:53:07.534Z,14.94
2019-05-14T13:55:33.738Z,15.39
2019-05-14T13:58:04.397Z,16.38
2019-05-14T14:00:34.947Z,17.12
2019-05-14T14:03:05.760Z,17.50
2019-05-14T14:05:38.925Z,17.74
2019-05-14T14:08:08.907Z,17.56
2019-05-14T14:10:44.925Z,17.73
2019-05-14T14:13:14.344Z,17.92
2019-05-14T14:15:45.368Z,17.98
2019-05-14T14:18:15.865Z,18.66
2019-05-14T14:20:48.735Z,19.80
2019-05-14T14:23:30.139Z,20.74
2019-05-14T14:25:59.606Z,20.74
2019-05-14T14:28:30.452Z,20.37
2019-05-14T14:31:07.457Z,21.62
2019-05-14T14:33:39.141Z,22.38
2019-05-14T14:36:09.895Z,21.47
2019-05-14T14:38:40.486Z,21.44
2019-05-14T14:41:11.664Z,20.33
2019-05-14T14:43:43.904Z,21.05
2019-05-14T14:46:14.665Z,20.50
2019-05-14T14:48:45.444Z,21.25
2019-05-14T14:51:18.950Z,20.59
2019-05-14T14:54:02.686Z,19.49
2019-05-14T14:56:30.316Z,18.34
2019-05-14T14:59:00.572Z,18.35
2019-05-14T15:01:31.899Z,18.83
2019-05-14T15:04:02.549Z,19.73
2019-05-14T15:06:33.294Z,18.36
2019-05-14T15:09:04.672Z,17.84
2019-05-14T15:11:39.395Z,18.70
2019-05-14T15:14:10.199Z,19.72
2019-05-14T15:16:45.513Z,20.30
2019-05-14T15:19:30.564Z,20.75
2019-05-14T15:22:01.575Z,20.89
2019-05-14T15:24:32.436Z,20.67
2019-05-14T15:27:14.869Z,18.65
2019-05-14T15:29:43.238Z,17.48
2019-05-14T15:32:13.189Z,17.06
2019-05-14T15:34:44.182Z,17.04
2019-05-14T15:37:14.630Z,16.18
2019-05-14T15:39:45.116Z,15.91
2019-05-14T15:42:15.455Z,16.53
2019-05-14T15:44:52.007Z,16.62
2019-05-14T15:47:19.034Z,16.24
2019-05-14T15:49:50.596Z,15.67
2019-05-14T15:52:28.682Z,16.07
2019-05-14T15:55:00.244Z,16.52
2019-05-14T15:57:30.884Z,16.62
2019-05-14T16:00:01.270Z,16.59
2019-05-14T16:02:31.478Z,17.26
2019-05-14T16:05:03.259Z,17.63
2019-05-14T16:07:33.514Z,17.69
2019-05-14T16:10:03.824Z,17.39
2019-05-14T16:12:34.659Z,17.84
2019-05-14T16:15:13.328Z,18.37
2019-05-14T16:17:49.904Z,18.86
2019-05-14T16:20:18.870Z,17.88
2019-05-14T16:22:49.414Z,16.90
2019-05-14T16:25:21.693Z,15.91
2019-05-14T16:27:53.120Z,15.39
2019-05-14T16:30:25.017Z,15.35
2019-05-14T16:33:02.268Z,15.38
2019-05-14T16:35:32.504Z,15.31
2019-05-14T16:38:02.921Z,15.47
2019-05-14T16:40:33.466Z,15.05
2019-05-14T16:43:03.983Z,15.07
2019-05-14T16:45:39.584Z,15.08
2019-05-14T16:48:11.141Z,15.03
2019-05-14T16:50:42.338Z,14.96
2019-05-14T16:53:12.972Z,14.94
2019-05-14T16:55:46.030Z,14.94
2019-05-14T16:58:19.542Z,14.85
2019-05-14T17:00:50.448Z,14.78
2019-05-14T17:03:20.728Z,14.48
2019-05-14T17:05:51.642Z,14.49
2019-05-14T17:08:22.047Z,14.52
2019-05-14T17:10:53.004Z,14.52
2019-05-14T17:13:23.660Z,14.63
2019-05-14T17:15:59.051Z,14.52
2019-05-14T17:18:29.519Z,14.62
2019-05-14T17:20:59.869Z,14.67
2019-05-14T17:23:32.599Z,14.52
2019-05-14T17:26:03.354Z,14.12
2019-05-14T17:28:36.926Z,13.92
2019-05-14T17:31:06.324Z,14.11
2019-05-14T17:33:39.352Z,14.18
2019-05-14T17:36:09.813Z,14.18
2019-05-14T17:38:41.339Z,14.03
2019-05-14T17:41:19.534Z,14.13
2019-05-14T17:44:09.008Z,14.02
2019-05-14T17:46:39.954Z,14.02
2019-05-14T17:49:10.540Z,13.80
2019-05-14T17:51:41.984Z,13.95
2019-05-14T17:54:15.674Z,13.91
2019-05-14T17:56:48.516Z,14.22
2019-05-14T17:59:23.245Z,14.81
2019-05-14T18:01:58.073Z,15.31
2019-05-14T18:04:28.396Z,15.61
2019-05-14T18:07:00.400Z,16.04
2019-05-14T18:09:31.813Z,16.29
2019-05-14T18:12:02.018Z,16.26
2019-05-14T18:14:32.706Z,15.73
2019-05-14T18:17:03.344Z,15.25
2019-05-14T18:19:33.704Z,14.78
2019-05-14T18:22:04.076Z,14.60
2019-05-14T18:24:34.640Z,14.28
2019-05-14T18:27:04.978Z,14.00
2019-05-14T18:29:40.761Z,13.65
2019-05-14T18:32:12.239Z,13.46
2019-05-14T18:34:42.587Z,13.26
2019-05-14T18:37:14.096Z,13.09
2019-05-14T18:39:48.158Z,13.14
2019-05-14T18:42:20.078Z,13.14
2019-05-14T18:44:50.529Z,13.09
2019-05-14T18:47:20.799Z,13.09
2019-05-14T18:49:52.423Z,12.99
2019-05-14T18:52:23.695Z,12.91
2019-05-14T18:54:54.246Z,12.86
2019-05-14T18:57:25.248Z,12.77
2019-05-14T18:59:55.900Z,12.71
2019-05-14T19:02:29.122Z,12.63
2019-05-14T19:04:59.364Z,12.66
2019-05-14T19:07:30.312Z,12.68
2019-05-14T19:10:02.400Z,12.73
2019-05-14T19:12:32.830Z,12.67
2019-05-14T19:15:03.411Z,12.44
2019-05-14T19:17:34.215Z,12.42
2019-05-14T19:20:04.696Z,12.41
2019-05-14T19:22:35.511Z,12.36
2019-05-14T19:25:08.175Z,12.41
2019-05-14T19:27:38.905Z,12.49
2019-05-14T19:30:12.623Z,12.41
2019-05-14T19:32:42.924Z,12.30
2019-05-14T19:35:14.897Z,12.17
2019-05-14T19:37:48.495Z,12.16
2019-05-14T19:40:18.971Z,12.17
2019-05-14T19:42:49.961Z,12.08
2019-05-14T19:45:20.996Z,12.12
2019-05-14T19:47:51.774Z,12.17
2019-05-14T19:50:22.771Z,12.06
2019-05-14T19:52:53.840Z,12.09
2019-05-14T19:55:24.187Z,12.01
2019-05-14T19:57:58.171Z,11.96
2019-05-14T20:00:29.391Z,11.88
2019-05-14T20:03:00.043Z,11.89
2019-05-14T20:05:30.748Z,11.90
2019-05-14T20:08:01.077Z,11.82
2019-05-14T20:10:32.726Z,11.78
2019-05-14T20:13:03.222Z,11.72
2019-05-14T20:15:34.492Z,11.77
2019-05-14T20:18:05.144Z,11.79
2019-05-14T20:20:38.139Z,11.78
2019-05-14T20:23:09.741Z,11.76
2019-05-14T20:25:40.433Z,11.69
2019-05-14T20:28:11.352Z,11.64
2019-05-14T20:30:41.839Z,11.48
2019-05-14T20:33:12.709Z,11.42
2019-05-14T20:35:44.719Z,11.42
2019-05-14T20:38:18.278Z,11.40
2019-05-14T20:40:49.342Z,11.52
2019-05-14T20:43:19.701Z,11.45
2019-05-14T20:45:51.116Z,11.42
2019-05-14T20:48:22.265Z,11.37
2019-05-14T20:50:53.814Z,11.29
2019-05-14T20:53:24.529Z,11.25
2019-05-14T20:55:54.713Z,11.23
2019-05-14T20:58:25.065Z,11.18
2019-05-14T21:00:55.427Z,11.09
2019-05-14T21:03:25.716Z,10.98
2019-05-14T21:05:58.234Z,11.04
2019-05-14T21:08:28.543Z,11.05
2019-05-14T21:10:58.918Z,11.08
2019-05-14T21:13:29.223Z,11.06
2019-05-14T21:15:59.529Z,11.01
2019-05-14T21:18:35.152Z,10.96
2019-05-14T21:21:05.381Z,10.96
2019-05-14T21:23:38.140Z,10.88
2019-05-14T21:26:08.642Z,10.87
2019-05-14T21:28:39.483Z,10.93
2019-05-14T21:31:10.439Z,10.89
2019-05-14T21:33:41.094Z,10.82
2019-05-14T21:36:12.351Z,10.71
2019-05-14T21:38:43.085Z,10.63
2019-05-14T21:41:13.605Z,10.63
2019-05-14T21:43:44.329Z,10.73
2019-05-14T21:46:14.685Z,10.71
2019-05-14T21:48:47.830Z,10.59
2019-05-14T21:51:18.533Z,10.60
2019-05-14T21:53:49.060Z,10.60
2019-05-14T21:56:21.766Z,10.65
2019-05-14T21:58:51.560Z,10.65
2019-05-14T22:01:22.240Z,10.55
2019-05-14T22:03:53.001Z,10.40
2019-05-14T22:06:24.667Z,10.04
2019-05-14T22:08:59.168Z,9.74
2019-05-14T22:11:29.897Z,9.58
2019-05-14T22:14:00.440Z,9.48
2019-05-14T22:16:30.947Z,9.45
2019-05-14T22:19:01.817Z,9.40
2019-05-14T22:21:32.333Z,9.36
2019-05-14T22:24:03.078Z,9.28
2019-05-14T22:26:33.688Z,9.23
2019-05-14T22:29:04.245Z,9.15
2019-05-14T22:31:35.273Z,9.10
2019-05-14T22:34:08.734Z,9.10
2019-05-14T22:36:38.949Z,9.12
2019-05-14T22:39:09.343Z,9.08
2019-05-14T22:41:40.595Z,9.04
2019-05-14T22:44:11.037Z,8.98
2019-05-14T22:46:41.208Z,8.92
2019-05-14T22:49:11.684Z,8.81
2019-05-14T22:51:41.959Z,8.77
2019-05-14T22:54:13.189Z,8.75
2019-05-14T22:56:44.984Z,8.72
2019-05-14T22:59:15.256Z,8.78
2019-05-14T23:01:48.042Z,8.75
2019-05-14T23:04:19.169Z,8.73
2019-05-14T23:06:49.937Z,8.75
2019-05-14T23:09:20.133Z,8.79
2019-05-14T23:11:50.540Z,8.85
2019-05-14T23:14:21.127Z,8.88
2019-05-14T23:16:51.923Z,8.84
2019-05-14T23:19:23.224Z,8.86
2019-05-14T23:21:53.442Z,8.83
2019-05-14T23:24:24.162Z,8.81
2019-05-14T23:26:54.418Z,8.70
2019-05-14T23:29:24.608Z,8.63
2019-05-14T23:31:55.247Z,8.60
2019-05-14T23:34:28.368Z,8.57
2019-05-14T23:36:58.643Z,8.42
2019-05-14T23:39:29.173Z,8.35
2019-05-14T23:42:00.104Z,8.37
2019-05-14T23:44:30.779Z,8.35
2019-05-14T23:47:01.421Z,8.28
2019-05-14T23:49:32.051Z,8.20
2019-05-14T23:52:02.265Z,8.17
2019-05-14T23:54:32.959Z,8.14
2019-05-14T23:57:03.498Z,8.08
2019-05-14T23:59:34.040Z,8.15
